Sweeney Granite Mountains, California Weather observations

Data are for 10 minute period ending at time listed.
 Day   Time   Solar   Ave.   Ave.  Ave.  Vector  Max.   Baro.   Total    
  of    of     Rad.   Air    Rel.  Wind   Wind   Wind  Press.  Precip.   
Year   Day            Temp.  Hum.  Speed  Dir.   Gust                    
2015   (PST)  Kw/m2    F      %     mph   deg.    mph    mb.     in.     
-------------------------------------------------------------------------
 244   21:10   0.00   77.0    38    6.6   233    12.6   870.4    0.00 
 244   21:20   0.00   76.9    38    6.4   228    12.1   870.4    0.00 
 244   21:30   0.00   76.8    38    6.6   230    13.4   870.4    0.00 
 244   21:40   0.00   76.7    39    6.3   235    11.5   870.5    0.00 
 244   21:50   0.00   76.4    41    6.7   231    12.4   870.4    0.00 
 244   22:00   0.00   76.2    42    7.8   229    14.8   870.4    0.00 
 244   22:10   0.00   76.1    43    6.6   228    12.4   870.4    0.00 
 244   22:20   0.00   76.0    43    5.3   236    10.4   870.4    0.00 
 244   22:30   0.00   75.8    44    5.4   236    12.5   870.4    0.00 
 244   22:40   0.00   75.7    44    5.5   237    12.3   870.4    0.00 
 244   22:50   0.00   75.6    45    5.1   232    12.0   870.4    0.00 
 244   23:00   0.00   75.5    45    6.4   226    11.6   870.4    0.00 
 244   23:10   0.00   75.5    46    6.1   230    10.8   870.4    0.00 
 244   23:20   0.00   75.3    46    6.0   231    12.1   870.4    0.00 
 244   23:30   0.00   75.0    47    4.4   245     9.2   870.3    0.00 
 244   23:40   0.00   74.9    48    6.2   233    11.5   870.3    0.00 
 244   23:50   0.00   74.8    48    4.4   243     9.0   870.3    0.00 
 245    0:00   0.00   74.8    49    5.4   231    11.2   870.3    0.00 
 245    0:10   0.00   74.4    50    2.9   191     8.9   870.3    0.00 
 245    0:20   0.00   74.0    51    2.0   274     6.4   870.2    0.00 
 245    0:30   0.00   73.9    52    4.6   219    11.4   870.1    0.00 
 245    0:40   0.00   74.0    51    6.0   234     9.9   870.1    0.00 
 245    0:50   0.00   73.8    51    4.3   253    11.3   870.1    0.00 
 245    1:00   0.00   73.7    50    3.6   251     8.7   870.1    0.00 
 245    1:10   0.00   73.0    51    1.6   240     5.5   870.1    0.00 
 245    1:20   0.00   72.5    51    1.2   220     4.5   870.1    0.00 
 245    1:30   0.00   72.7    51    1.4   240     4.2   870.1    0.00 
 245    1:40   0.00   72.4    52    1.2    58     2.9   870.0    0.00 
 245    1:50   0.00   71.5    52    2.0    62     3.7   870.0    0.00 
 245    2:00   0.00   71.4    52    1.0     4     2.8   870.0    0.00 
 245    2:10   0.00   71.2    52    2.2   222     3.8   869.9    0.00 
 245    2:20   0.00   71.4    51    0.4    52     1.8   869.9    0.00 
 245    2:30   0.00   70.2    53    0.8    56     2.0   869.9    0.00 
 245    2:40   0.00   68.4    56    0.8   350     1.7   869.8    0.00 
 245    2:50   0.00   68.6    56    0.5    49     1.5   869.7    0.00 
 245    3:00   0.00   68.0    56    1.4   114     2.2   869.7    0.00 
 245    3:10   0.00   67.7    56    2.0    93     2.9   869.8    0.00 
 245    3:20   0.00   68.9    54    2.3    97     3.1   869.8    0.00 
 245    3:30   0.00   68.7    54    1.9   101     2.6   869.7    0.00 
 245    3:40   0.00   68.1    55    1.8    93     2.3   869.7    0.00 
 245    3:50   0.00   68.0    54    1.3   111     1.7   869.7    0.00 
 245    4:00   0.00   66.5    57    1.3   118     2.0   869.7    0.00 
 245    4:10   0.00   66.3    57    1.9   131     3.3   869.7    0.00 
 245    4:20   0.00   67.1    57    1.8   104     2.4   869.8    0.00 
 245    4:30   0.00   67.1    57    1.6    86     2.2   869.9    0.00 
 245    4:40   0.00   66.2    57    1.2    12     2.6   869.9    0.00 
 245    4:50   0.00   65.4    59    0.9   295     2.6   870.0    0.00 
 245    5:00   0.00   65.6    58    0.7   324     1.8   870.1    0.00 
 245    5:10   0.00   66.1    56    0.6   297     1.5   870.1    0.00 
 245    5:20   0.00   64.6    58    0.0     0     0.0   870.2    0.00 
 245    5:30   0.00   65.4    54    0.7    50     1.7   870.3    0.00 
 245    5:40   0.01   65.9    52    1.2   287     2.5   870.4    0.00 
 245    5:50   0.01   66.5    50    0.3   294     1.5   870.5    0.00 
 245    6:00   0.03   66.9    48    1.3   108     2.9   870.6    0.00 
 245    6:10   0.07   68.6    45    1.8   100     2.7   870.7    0.00 
 245    6:20   0.09   70.6    44    0.9    62     1.2   870.8    0.00 
 245    6:30   0.13   72.0    44    0.3    40     1.7   870.8    0.00 
 245    6:40   0.15   73.8    38    1.0   268     2.8   870.8    0.00 
 245    6:50   0.14   74.7    36    1.3   259     3.2   870.9    0.00 
 245    7:00   0.22   75.8    34    1.4   214     4.2   870.9    0.00 
 245    7:10   0.30   76.2    34    2.3   198     6.1   871.0    0.00 
 245    7:20   0.33   76.7    36    4.0   141    10.2   871.1    0.00 
 245    7:30   0.28   75.0    39    3.9   112     7.5   871.2    0.00 
 245    7:40   0.38   75.1    38    5.7   119    11.2   871.2    0.00 
 245    7:50   0.45   75.9    37    4.5   111     9.8   871.2    0.00 
 245    8:00   0.44   76.6    35    6.5   112    11.7   871.2    0.00 
 245    8:10   0.41   76.0    36    6.8   125    11.5   871.2    0.00 
 245    8:20   0.48   76.3    35    5.3   105    11.4   871.2    0.00 
 245    8:30   0.56   77.5    33    7.5   115    13.0   871.3    0.00 
 245    8:40   0.56   77.3    33    4.5   111    12.2   871.3    0.00 
 245    8:50   0.60   78.5    32    5.3   120    11.3   871.3    0.00 
 245    9:00   0.62   78.0    33    5.7   108    12.7   871.4    0.00 
 245    9:10   0.66   78.0    33    6.2   116    12.9   871.5    0.00 
 245    9:20   0.66   78.6    32    6.6   106    11.9   871.5    0.00 
 245    9:30   0.71   78.4    33    5.7   107    11.2   871.5    0.00 
 245    9:40   0.81   78.6    32    9.2   125    15.1   871.5    0.00 
 245    9:50   0.78   79.0    31    8.1   119    13.4   871.5    0.00 
 245   10:00   0.82   79.2    30    7.0   121    16.1   871.4    0.00 
 245   10:10   0.80   79.4    30    5.9   102    11.2   871.3    0.00 
 245   10:20   0.80   79.7    29    8.6   115    14.7   871.2    0.00 
 245   10:30   0.90   80.7    28    9.7   116    17.0   871.1    0.00 
 245   10:40   0.88   80.9    27    8.2   130    17.4   871.0    0.00 
 245   10:50   0.90   81.5    26    9.7   119    16.9   870.9    0.00 
 245   11:00   0.89   81.2    26   10.3   119    21.7   870.8    0.00 
 245   11:10   0.93   81.3    26    8.9   113    19.1   870.7    0.00 
 245   11:20   0.87   82.3    26    5.1   137    13.2   870.7    0.00 
 245   11:30   0.93   81.6    27    7.8   112    16.5   870.6    0.00 
 245   11:40   0.94   82.4    26   10.5   118    18.4   870.5    0.00 
 245   11:50   0.94   81.8    27   11.3   128    19.7   870.4    0.00 
 245   12:00   0.95   83.0    26   10.8   120    25.4   870.4    0.00 
 245   12:10   0.93   82.7    27   14.8   125    24.7   870.3    0.00 
 245   12:20   0.94   83.6    25    9.1   118    20.9   870.2    0.00 
 245   12:30   0.93   83.2    24    8.1   119    21.5   870.2    0.00 
 245   12:40   0.91   83.3    24   12.7   116    26.0   870.0    0.00 
 245   12:50   0.82   83.4    24    7.2   166    18.9   870.0    0.00 
 245   13:00   0.86   84.1    23    7.4   106    17.3   869.9    0.00 
 245   13:10   0.76   83.0    24    8.9    94    20.9   869.8    0.00 
 245   13:20   0.74   83.1    25    4.7   171    13.9   869.6    0.00 
 245   13:30   0.54   83.2    25    7.7   108    20.3   869.5    0.00 
 245   13:40   0.51   82.0    24   11.6   112    21.9   869.4    0.00 
 245   13:50   0.63   83.0    24    9.5   104    19.6   869.3    0.00 
 245   14:00   0.79   83.4    23   12.0   120    25.9   869.1    0.00 
 245   14:10   0.62   82.7    25   13.3   107    27.1   869.0    0.00 
 245   14:20   0.61   82.9    24   10.3   107    23.9   868.9    0.00 
 245   14:30   0.73   84.5    22    5.3   162    18.3   868.9    0.00 
 245   14:40   0.61   83.5    24   11.1   112    20.5   868.7    0.00 
 245   14:50   0.75   84.3    22    4.2   126    14.6   868.7    0.00 
 245   15:00   0.73   85.0    21    7.5   152    22.4   868.6    0.00 
 245   15:10   0.66   83.6    23    7.4   115    20.6   868.6    0.00 
 245   15:20   0.65   85.0    22    5.6   105    19.5   868.4    0.00 
 245   15:30   0.41   84.2    22    8.3   127    18.8   868.3    0.00 
 245   15:40   0.44   83.8    23   10.3   114    19.3   868.3    0.00 
 245   15:50   0.47   83.2    23    9.9   108    17.8   868.3    0.00 
 245   16:00   0.37   83.3    23   10.3   117    17.9   868.3    0.00 
 245   16:10   0.30   82.3    24   10.0   118    19.1   868.3    0.00 
 245   16:20   0.30   82.7    23    7.8   103    18.0   868.3    0.00 
 245   16:30   0.33   82.5    23   12.4   113    22.3   868.2    0.00 
 245   16:40   0.31   82.1    24    8.5   110    17.4   868.2    0.00 
 245   16:50   0.25   82.0    23    9.2   102    20.5   868.1    0.00 
 245   17:00   0.23   82.9    22    3.7   340    12.8   868.2    0.00 
 245   17:10   0.18   82.8    23    6.7   104    13.7   868.2    0.00 
 245   17:20   0.05   81.3    24    7.5   108    14.8   868.2    0.00 
 245   17:30   0.04   80.5    24    8.5   113    16.0   868.2    0.00 
 245   17:40   0.03   80.2    24    6.5   112    15.3   868.2    0.00 
 245   17:50   0.02   79.9    26    7.5   109    14.8   868.3    0.00 
 245   18:00   0.01   79.3    26    9.9   121    14.8   868.2    0.00 
 245   18:10   0.01   78.8    27    8.6   120    13.7   868.3    0.00 
 245   18:20   0.00   78.3    27    8.0   116    13.0   868.3    0.00 
 245   18:30   0.00   77.6    28    6.9   115    11.9   868.3    0.00 
 245   18:40   0.00   77.2    28    7.4   113    12.3   868.4    0.00 
 245   18:50   0.00   76.8    29    6.8   110    11.8   868.4    0.00 
 245   19:00   0.00   76.5    29    5.3   104     8.6   868.5    0.00 
 245   19:10   0.00   76.3    30    4.7   101     8.6   868.6    0.00 
 245   19:20   0.00   76.6    30    4.2    96    10.2   868.8    0.00 
 245   19:30   0.00   76.5    30    6.1   105    10.6   869.0    0.00 
 245   19:40   0.00   76.0    30    5.5   107     9.4   869.0    0.00 
 245   19:50   0.00   75.2    31    4.7   101     6.4   869.0    0.00 
 245   20:00   0.00   74.8    32    3.8   106     5.5   869.1    0.00 
 245   20:10   0.00   74.6    32    4.0    99     5.3   869.1    0.00 
 245   20:20   0.00   75.3    32    3.1   101     5.2   869.2    0.00 
 245   20:30   0.00   74.9    31    5.4    96     7.6   869.1    0.00 
 245   20:40   0.00   74.3    30    5.8    98     9.6   869.1    0.00 
 245   20:50   0.00   74.0    28    6.2    95     8.3   869.1    0.00 
 245   21:00   0.00   74.5    27    4.9    82     8.0   869.1    0.00 

Return to Sweeney Granite Mountains graphs page.


Western Regional Climate Center,wrcc@dri.edu